sensor_id;sensor_type;location;lat;lon;timestamp;pressure;altitude;pressure_sealevel;temperature;humidity
21361;BME280;10839;43.206;23.550;2022-12-18T00:01:32;98039.78;;;6.21;100.00
21361;BME280;10839;43.206;23.550;2022-12-18T00:03:59;98050.63;;;6.19;100.00
21361;BME280;10839;43.206;23.550;2022-12-18T00:06:28;98058.53;;;6.48;100.00
21361;BME280;10839;43.206;23.550;2022-12-18T00:08:55;98054.38;;;5.90;100.00
21361;BME280;10839;43.206;23.550;2022-12-18T00:11:23;98058.72;;;5.91;100.00
21361;BME280;10839;43.206;23.550;2022-12-18T00:13:51;98050.13;;;5.97;100.00
21361;BME280;10839;43.206;23.550;2022-12-18T00:16:19;98062.50;;;5.98;100.00
21361;BME280;10839;43.206;23.550;2022-12-18T00:18:50;98066.59;;;6.02;100.00
21361;BME280;10839;43.206;23.550;2022-12-18T00:21:17;98071.56;;;6.33;100.00
21361;BME280;10839;43.206;23.550;2022-12-18T00:23:45;98068.47;;;6.28;100.00
21361;BME280;10839;43.206;23.550;2022-12-18T00:26:14;98078.66;;;6.06;100.00
21361;BME280;10839;43.206;23.550;2022-12-18T00:28:41;98086.44;;;6.36;100.00
21361;BME280;10839;43.206;23.550;2022-12-18T00:31:10;98080.53;;;6.42;100.00
21361;BME280;10839;43.206;23.550;2022-12-18T00:33:36;98082.00;;;6.08;100.00
21361;BME280;10839;43.206;23.550;2022-12-18T00:36:03;98079.28;;;6.36;100.00
21361;BME280;10839;43.206;23.550;2022-12-18T00:38:31;98077.59;;;6.26;100.00
21361;BME280;10839;43.206;23.550;2022-12-18T00:40:57;98083.69;;;6.09;100.00
21361;BME280;10839;43.206;23.550;2022-12-18T00:43:23;98078.56;;;6.34;100.00
21361;BME280;10839;43.206;23.550;2022-12-18T00:45:49;98083.06;;;6.34;100.00
21361;BME280;10839;43.206;23.550;2022-12-18T00:48:15;98089.59;;;6.12;100.00
21361;BME280;10839;43.206;23.550;2022-12-18T00:50:41;98088.34;;;6.16;100.00
21361;BME280;10839;43.206;23.550;2022-12-18T00:53:10;98090.94;;;6.35;100.00
21361;BME280;10839;43.206;23.550;2022-12-18T00:55:38;98096.63;;;6.13;100.00
21361;BME280;10839;43.206;23.550;2022-12-18T00:58:04;98088.19;;;6.18;100.00
21361;BME280;10839;43.206;23.550;2022-12-18T01:00:30;98092.59;;;6.46;100.00
21361;BME280;10839;43.206;23.550;2022-12-18T01:02:56;98093.19;;;6.40;100.00
21361;BME280;10839;43.206;23.550;2022-12-18T01:05:24;98087.25;;;6.46;100.00
21361;BME280;10839;43.206;23.550;2022-12-18T01:07:50;98085.19;;;6.67;100.00
21361;BME280;10839;43.206;23.550;2022-12-18T01:10:16;98087.72;;;6.69;100.00
21361;BME280;10839;43.206;23.550;2022-12-18T01:12:42;98099.03;;;6.53;100.00
21361;BME280;10839;43.206;23.550;2022-12-18T01:15:10;98098.94;;;6.82;100.00
21361;BME280;10839;43.206;23.550;2022-12-18T01:17:37;98098.56;;;6.94;100.00
21361;BME280;10839;43.206;23.550;2022-12-18T01:20:03;98099.47;;;6.85;100.00
21361;BME280;10839;43.206;23.550;2022-12-18T01:22:29;98109.16;;;7.13;100.00
21361;BME280;10839;43.206;23.550;2022-12-18T01:24:55;98102.34;;;7.19;100.00
21361;BME280;10839;43.206;23.550;2022-12-18T01:27:22;98113.75;;;7.03;100.00
21361;BME280;10839;43.206;23.550;2022-12-18T01:29:49;98105.38;;;7.33;100.00
21361;BME280;10839;43.206;23.550;2022-12-18T01:32:15;98100.63;;;7.27;100.00
21361;BME280;10839;43.206;23.550;2022-12-18T01:34:41;98109.75;;;7.07;100.00
21361;BME280;10839;43.206;23.550;2022-12-18T01:37:06;98108.56;;;7.19;100.00
21361;BME280;10839;43.206;23.550;2022-12-18T01:39:32;98109.25;;;7.21;100.00
21361;BME280;10839;43.206;23.550;2022-12-18T01:42:03;98113.50;;;6.97;100.00
21361;BME280;10839;43.206;23.550;2022-12-18T01:47:39;98112.50;;;7.15;100.00
21361;BME280;10839;43.206;23.550;2022-12-18T01:50:12;98123.69;;;6.84;100.00
21361;BME280;10839;43.206;23.550;2022-12-18T01:52:41;98128.88;;;7.12;100.00
21361;BME280;10839;43.206;23.550;2022-12-18T01:55:09;98122.50;;;6.96;100.00
21361;BME280;10839;43.206;23.550;2022-12-18T01:57:35;98120.66;;;6.69;100.00
21361;BME280;10839;43.206;23.550;2022-12-18T02:00:10;98134.28;;;7.03;100.00
21361;BME280;10839;43.206;23.550;2022-12-18T02:02:41;98143.66;;;6.89;100.00
21361;BME280;10839;43.206;23.550;2022-12-18T02:05:10;98141.25;;;6.49;100.00
21361;BME280;10839;43.206;23.550;2022-12-18T02:16:29;98148.53;;;6.67;100.00
21361;BME280;10839;43.206;23.550;2022-12-18T02:19:01;98158.03;;;6.42;100.00
21361;BME280;10839;43.206;23.550;2022-12-18T02:21:58;98160.72;;;6.42;100.00
21361;BME280;10839;43.206;23.550;2022-12-18T02:27:29;98170.59;;;6.32;100.00
21361;BME280;10839;43.206;23.550;2022-12-18T02:29:58;98171.94;;;6.55;100.00
21361;BME280;10839;43.206;23.550;2022-12-18T02:32:34;98179.13;;;6.45;100.00
21361;BME280;10839;43.206;23.550;2022-12-18T02:35:02;98189.16;;;6.05;100.00
21361;BME280;10839;43.206;23.550;2022-12-18T02:37:32;98193.38;;;6.17;100.00
21361;BME280;10839;43.206;23.550;2022-12-18T02:40:03;98193.22;;;6.09;100.00
21361;BME280;10839;43.206;23.550;2022-12-18T02:42:31;98186.78;;;5.83;100.00
21361;BME280;10839;43.206;23.550;2022-12-18T02:45:00;98188.31;;;5.95;100.00
21361;BME280;10839;43.206;23.550;2022-12-18T02:47:30;98184.09;;;6.21;100.00
21361;BME280;10839;43.206;23.550;2022-12-18T02:55:33;98177.63;;;6.04;100.00
21361;BME280;10839;43.206;23.550;2022-12-18T03:04:22;98197.34;;;5.94;100.00
21361;BME280;10839;43.206;23.550;2022-12-18T03:06:59;98205.28;;;5.75;100.00
21361;BME280;10839;43.206;23.550;2022-12-18T03:09:46;98204.19;;;6.06;100.00
21361;BME280;10839;43.206;23.550;2022-12-18T03:12:19;98206.31;;;5.93;100.00
21361;BME280;10839;43.206;23.550;2022-12-18T03:15:04;98205.03;;;5.87;100.00
21361;BME280;10839;43.206;23.550;2022-12-18T03:17:33;98204.50;;;6.03;100.00
21361;BME280;10839;43.206;23.550;2022-12-18T03:20:12;98211.78;;;5.82;100.00
21361;BME280;10839;43.206;23.550;2022-12-18T03:22:42;98209.38;;;5.79;100.00
21361;BME280;10839;43.206;23.550;2022-12-18T03:25:13;98206.59;;;5.99;100.00
21361;BME280;10839;43.206;23.550;2022-12-18T03:27:46;98213.91;;;5.88;100.00
21361;BME280;10839;43.206;23.550;2022-12-18T03:30:15;98218.34;;;5.78;100.00
21361;BME280;10839;43.206;23.550;2022-12-18T03:35:34;98219.81;;;5.91;100.00
21361;BME280;10839;43.206;23.550;2022-12-18T03:38:01;98220.88;;;5.70;100.00
21361;BME280;10839;43.206;23.550;2022-12-18T03:41:03;98231.63;;;5.89;100.00
21361;BME280;10839;43.206;23.550;2022-12-18T03:43:57;98226.78;;;5.64;100.00
21361;BME280;10839;43.206;23.550;2022-12-18T03:49:53;98241.38;;;5.69;100.00
21361;BME280;10839;43.206;23.550;2022-12-18T03:54:55;98239.69;;;5.59;100.00
21361;BME280;10839;43.206;23.550;2022-12-18T03:57:25;98259.94;;;5.71;100.00
21361;BME280;10839;43.206;23.550;2022-12-18T04:00:04;98267.19;;;5.50;100.00
21361;BME280;10839;43.206;23.550;2022-12-18T04:02:45;98265.69;;;5.66;100.00
21361;BME280;10839;43.206;23.550;2022-12-18T04:05:20;98261.75;;;5.61;100.00
21361;BME280;10839;43.206;23.550;2022-12-18T04:07:49;98269.72;;;5.42;100.00
21361;BME280;10839;43.206;23.550;2022-12-18T04:10:17;98271.53;;;5.51;100.00
21361;BME280;10839;43.206;23.550;2022-12-18T04:12:43;98265.56;;;5.68;100.00
21361;BME280;10839;43.206;23.550;2022-12-18T04:15:12;98287.88;;;5.57;100.00
21361;BME280;10839;43.206;23.550;2022-12-18T04:17:46;98283.53;;;5.66;100.00
21361;BME280;10839;43.206;23.550;2022-12-18T04:20:14;98284.63;;;5.93;100.00
21361;BME280;10839;43.206;23.550;2022-12-18T04:22:42;98291.53;;;5.66;100.00
21361;BME280;10839;43.206;23.550;2022-12-18T04:25:08;98300.97;;;5.60;100.00
21361;BME280;10839;43.206;23.550;2022-12-18T04:27:38;98307.19;;;5.80;100.00
21361;BME280;10839;43.206;23.550;2022-12-18T04:30:05;98302.88;;;5.49;100.00
21361;BME280;10839;43.206;23.550;2022-12-18T04:32:33;98317.75;;;5.42;100.00
21361;BME280;10839;43.206;23.550;2022-12-18T04:34:59;98319.50;;;5.62;100.00
21361;BME280;10839;43.206;23.550;2022-12-18T04:37:25;98324.69;;;5.54;100.00
21361;BME280;10839;43.206;23.550;2022-12-18T04:39:51;98329.81;;;5.46;100.00
21361;BME280;10839;43.206;23.550;2022-12-18T04:42:25;98339.78;;;5.74;100.00
21361;BME280;10839;43.206;23.550;2022-12-18T04:44:50;98340.00;;;5.61;100.00
21361;BME280;10839;43.206;23.550;2022-12-18T04:47:16;98338.28;;;5.51;100.00
21361;BME280;10839;43.206;23.550;2022-12-18T04:49:43;98335.81;;;5.68;100.00
21361;BME280;10839;43.206;23.550;2022-12-18T04:52:08;98335.13;;;5.66;100.00
21361;BME280;10839;43.206;23.550;2022-12-18T04:54:34;98325.84;;;5.31;100.00
21361;BME280;10839;43.206;23.550;2022-12-18T04:57:00;98335.72;;;5.40;100.00
21361;BME280;10839;43.206;23.550;2022-12-18T04:59:26;98333.13;;;5.59;100.00
21361;BME280;10839;43.206;23.550;2022-12-18T05:01:52;98341.59;;;5.34;100.00
21361;BME280;10839;43.206;23.550;2022-12-18T05:04:19;98344.72;;;5.18;100.00
21361;BME280;10839;43.206;23.550;2022-12-18T05:06:45;98359.56;;;5.71;100.00
21361;BME280;10839;43.206;23.550;2022-12-18T05:09:11;98357.41;;;5.56;100.00
21361;BME280;10839;43.206;23.550;2022-12-18T05:11:37;98361.81;;;5.36;100.00
21361;BME280;10839;43.206;23.550;2022-12-18T05:14:03;98356.06;;;5.71;100.00
21361;BME280;10839;43.206;23.550;2022-12-18T05:16:29;98350.09;;;5.58;100.00
21361;BME280;10839;43.206;23.550;2022-12-18T05:18:55;98349.16;;;5.29;100.00
21361;BME280;10839;43.206;23.550;2022-12-18T05:21:21;98359.28;;;5.35;100.00
21361;BME280;10839;43.206;23.550;2022-12-18T05:23:47;98357.31;;;5.67;100.00
21361;BME280;10839;43.206;23.550;2022-12-18T05:26:16;98361.50;;;5.30;100.00
21361;BME280;10839;43.206;23.550;2022-12-18T05:28:42;98351.63;;;5.20;100.00
21361;BME280;10839;43.206;23.550;2022-12-18T05:31:09;98360.78;;;5.58;100.00
21361;BME280;10839;43.206;23.550;2022-12-18T05:33:35;98352.06;;;5.56;100.00
21361;BME280;10839;43.206;23.550;2022-12-18T05:36:02;98365.16;;;5.29;100.00
21361;BME280;10839;43.206;23.550;2022-12-18T05:38:30;98365.63;;;5.73;100.00
21361;BME280;10839;43.206;23.550;2022-12-18T05:40:57;98373.50;;;5.75;100.00
21361;BME280;10839;43.206;23.550;2022-12-18T05:43:25;98386.06;;;5.54;100.00
21361;BME280;10839;43.206;23.550;2022-12-18T05:45:51;98375.75;;;5.79;100.00
21361;BME280;10839;43.206;23.550;2022-12-18T05:48:18;98382.50;;;5.74;100.00
21361;BME280;10839;43.206;23.550;2022-12-18T05:50:46;98393.69;;;5.58;100.00
21361;BME280;10839;43.206;23.550;2022-12-18T05:53:13;98393.19;;;5.74;100.00
21361;BME280;10839;43.206;23.550;2022-12-18T05:55:41;98401.72;;;5.88;100.00
21361;BME280;10839;43.206;23.550;2022-12-18T05:58:08;98409.22;;;5.74;100.00
21361;BME280;10839;43.206;23.550;2022-12-18T06:00:37;98410.31;;;5.71;100.00
21361;BME280;10839;43.206;23.550;2022-12-18T06:03:06;98407.63;;;5.92;100.00
21361;BME280;10839;43.206;23.550;2022-12-18T06:05:36;98420.81;;;5.84;100.00
21361;BME280;10839;43.206;23.550;2022-12-18T06:08:03;98414.81;;;5.71;100.00
21361;BME280;10839;43.206;23.550;2022-12-18T06:10:29;98429.28;;;5.89;100.00
21361;BME280;10839;43.206;23.550;2022-12-18T06:12:55;98411.53;;;5.88;100.00
21361;BME280;10839;43.206;23.550;2022-12-18T06:15:20;98427.38;;;5.59;100.00
21361;BME280;10839;43.206;23.550;2022-12-18T06:17:46;98422.75;;;5.82;100.00
21361;BME280;10839;43.206;23.550;2022-12-18T06:20:12;98428.16;;;6.01;100.00
21361;BME280;10839;43.206;23.550;2022-12-18T06:22:38;98438.53;;;5.85;100.00
21361;BME280;10839;43.206;23.550;2022-12-18T06:25:04;98441.09;;;5.96;100.00
21361;BME280;10839;43.206;23.550;2022-12-18T06:27:31;98446.78;;;5.82;100.00
21361;BME280;10839;43.206;23.550;2022-12-18T06:29:59;98448.28;;;5.75;100.00
21361;BME280;10839;43.206;23.550;2022-12-18T06:32:25;98457.94;;;5.87;100.00
21361;BME280;10839;43.206;23.550;2022-12-18T06:34:51;98453.47;;;5.97;100.00
21361;BME280;10839;43.206;23.550;2022-12-18T06:37:19;98460.06;;;5.93;100.00
21361;BME280;10839;43.206;23.550;2022-12-18T06:39:45;98458.56;;;6.00;100.00
21361;BME280;10839;43.206;23.550;2022-12-18T06:42:11;98460.72;;;6.15;100.00
21361;BME280;10839;43.206;23.550;2022-12-18T06:44:37;98465.75;;;6.09;100.00
21361;BME280;10839;43.206;23.550;2022-12-18T06:47:03;98455.47;;;6.04;100.00
21361;BME280;10839;43.206;23.550;2022-12-18T06:49:28;98460.63;;;6.36;100.00
21361;BME280;10839;43.206;23.550;2022-12-18T06:51:54;98466.56;;;6.49;100.00
21361;BME280;10839;43.206;23.550;2022-12-18T06:54:20;98474.31;;;6.42;100.00
21361;BME280;10839;43.206;23.550;2022-12-18T06:56:49;98472.28;;;6.84;100.00
21361;BME280;10839;43.206;23.550;2022-12-18T06:59:15;98473.13;;;6.94;100.00
21361;BME280;10839;43.206;23.550;2022-12-18T07:01:41;98472.28;;;6.84;100.00
21361;BME280;10839;43.206;23.550;2022-12-18T07:04:06;98463.13;;;7.15;100.00
21361;BME280;10839;43.206;23.550;2022-12-18T07:06:32;98473.69;;;7.26;100.00
21361;BME280;10839;43.206;23.550;2022-12-18T07:08:58;98473.13;;;7.04;100.00
21361;BME280;10839;43.206;23.550;2022-12-18T07:11:24;98469.19;;;7.36;100.00
21361;BME280;10839;43.206;23.550;2022-12-18T07:13:52;98469.44;;;7.52;100.00
21361;BME280;10839;43.206;23.550;2022-12-18T07:16:19;98471.81;;;7.55;100.00
21361;BME280;10839;43.206;23.550;2022-12-18T07:18:46;98474.69;;;7.91;100.00
21361;BME280;10839;43.206;23.550;2022-12-18T07:21:15;98478.25;;;7.82;100.00
21361;BME280;10839;43.206;23.550;2022-12-18T07:23:41;98485.47;;;7.71;100.00
21361;BME280;10839;43.206;23.550;2022-12-18T07:26:12;98487.97;;;7.82;100.00
21361;BME280;10839;43.206;23.550;2022-12-18T07:28:39;98487.63;;;8.05;100.00
21361;BME280;10839;43.206;23.550;2022-12-18T07:31:07;98489.41;;;7.87;100.00
21361;BME280;10839;43.206;23.550;2022-12-18T07:33:34;98486.56;;;7.78;100.00
21361;BME280;10839;43.206;23.550;2022-12-18T07:36:04;98494.13;;;8.12;100.00
21361;BME280;10839;43.206;23.550;2022-12-18T07:38:31;98490.22;;;7.97;100.00
21361;BME280;10839;43.206;23.550;2022-12-18T07:41:05;98491.66;;;7.82;100.00
21361;BME280;10839;43.206;23.550;2022-12-18T07:43:32;98501.50;;;7.91;100.00
21361;BME280;10839;43.206;23.550;2022-12-18T07:45:58;98505.00;;;8.01;100.00
21361;BME280;10839;43.206;23.550;2022-12-18T07:48:24;98499.53;;;7.93;100.00
21361;BME280;10839;43.206;23.550;2022-12-18T07:50:49;98507.59;;;7.73;100.00
21361;BME280;10839;43.206;23.550;2022-12-18T07:53:15;98506.81;;;8.10;100.00
21361;BME280;10839;43.206;23.550;2022-12-18T07:55:41;98510.91;;;8.04;100.00
21361;BME280;10839;43.206;23.550;2022-12-18T07:58:08;98511.16;;;7.64;100.00
21361;BME280;10839;43.206;23.550;2022-12-18T08:00:34;98517.13;;;8.05;100.00
21361;BME280;10839;43.206;23.550;2022-12-18T08:03:01;98530.16;;;8.36;95.21
21361;BME280;10839;43.206;23.550;2022-12-18T08:05:28;98529.94;;;8.11;93.97
21361;BME280;10839;43.206;23.550;2022-12-18T08:07:54;98535.78;;;7.77;93.70
21361;BME280;10839;43.206;23.550;2022-12-18T08:10:20;98529.91;;;8.30;93.72
21361;BME280;10839;43.206;23.550;2022-12-18T08:12:49;98537.34;;;8.36;90.72
21361;BME280;10839;43.206;23.550;2022-12-18T08:15:15;98535.06;;;7.95;91.48
21361;BME280;10839;43.206;23.550;2022-12-18T08:17:41;98536.47;;;7.89;94.83
21361;BME280;10839;43.206;23.550;2022-12-18T08:20:07;98538.91;;;8.38;94.42
21361;BME280;10839;43.206;23.550;2022-12-18T08:22:34;98539.19;;;8.35;94.04
21361;BME280;10839;43.206;23.550;2022-12-18T08:25:01;98536.44;;;7.99;94.92
21361;BME280;10839;43.206;23.550;2022-12-18T08:27:28;98536.72;;;8.15;95.09
21361;BME280;10839;43.206;23.550;2022-12-18T08:29:53;98535.69;;;8.62;89.74
21361;BME280;10839;43.206;23.550;2022-12-18T08:32:19;98542.84;;;8.44;90.45
21361;BME280;10839;43.206;23.550;2022-12-18T08:34:45;98544.22;;;8.02;94.95
21361;BME280;10839;43.206;23.550;2022-12-18T08:37:11;98547.94;;;8.37;96.13
21361;BME280;10839;43.206;23.550;2022-12-18T08:39:37;98541.34;;;8.59;93.25
21361;BME280;10839;43.206;23.550;2022-12-18T08:42:03;98550.97;;;8.52;93.44
21361;BME280;10839;43.206;23.550;2022-12-18T08:44:47;98553.75;;;8.33;95.79
21361;BME280;10839;43.206;23.550;2022-12-18T08:47:14;98539.88;;;8.74;95.99
21361;BME280;10839;43.206;23.550;2022-12-18T08:49:40;98557.94;;;8.72;94.51
21361;BME280;10839;43.206;23.550;2022-12-18T08:52:06;98562.19;;;8.38;96.76
21361;BME280;10839;43.206;23.550;2022-12-18T08:54:32;98556.25;;;8.44;97.31
21361;BME280;10839;43.206;23.550;2022-12-18T08:56:57;98558.34;;;9.04;92.58
21361;BME280;10839;43.206;23.550;2022-12-18T08:59:23;98555.78;;;8.58;92.72
21361;BME280;10839;43.206;23.550;2022-12-18T09:01:49;98556.44;;;8.33;96.54
21361;BME280;10839;43.206;23.550;2022-12-18T09:04:16;98558.16;;;8.24;98.16
21361;BME280;10839;43.206;23.550;2022-12-18T09:06:42;98559.25;;;8.31;96.16
21361;BME280;10839;43.206;23.550;2022-12-18T09:09:09;98554.97;;;9.02;93.65
21361;BME280;10839;43.206;23.550;2022-12-18T09:11:35;98557.56;;;8.94;92.53
21361;BME280;10839;43.206;23.550;2022-12-18T09:14:01;98552.88;;;8.69;96.04
21361;BME280;10839;43.206;23.550;2022-12-18T09:16:28;98558.09;;;8.43;93.24
21361;BME280;10839;43.206;23.550;2022-12-18T09:18:57;98562.41;;;8.54;95.13
21361;BME280;10839;43.206;23.550;2022-12-18T09:21:29;98559.16;;;8.60;93.32
21361;BME280;10839;43.206;23.550;2022-12-18T09:23:55;98569.38;;;9.01;90.52
21361;BME280;10839;43.206;23.550;2022-12-18T09:26:22;98570.03;;;9.30;82.21
21361;BME280;10839;43.206;23.550;2022-12-18T09:28:49;98572.16;;;8.82;75.06
21361;BME280;10839;43.206;23.550;2022-12-18T09:31:19;98579.25;;;8.46;74.97
21361;BME280;10839;43.206;23.550;2022-12-18T09:33:45;98576.78;;;8.26;73.63
21361;BME280;10839;43.206;23.550;2022-12-18T09:36:13;98580.16;;;8.09;71.94
21361;BME280;10839;43.206;23.550;2022-12-18T09:38:39;98583.00;;;7.98;71.20
21361;BME280;10839;43.206;23.550;2022-12-18T09:44:20;98584.69;;;8.64;68.79
21361;BME280;10839;43.206;23.550;2022-12-18T09:47:05;98594.69;;;8.35;68.32
21361;BME280;10839;43.206;23.550;2022-12-18T09:49:36;98585.78;;;8.15;70.72
21361;BME280;10839;43.206;23.550;2022-12-18T09:55:00;98590.03;;;8.18;68.90
21361;BME280;10839;43.206;23.550;2022-12-18T09:57:29;98592.06;;;8.89;66.20
21361;BME280;10839;43.206;23.550;2022-12-18T10:00:04;98600.63;;;8.75;63.44
21361;BME280;10839;43.206;23.550;2022-12-18T10:03:16;98595.94;;;8.31;63.83
21361;BME280;10839;43.206;23.550;2022-12-18T10:06:07;98609.78;;;8.36;63.69
21361;BME280;10839;43.206;23.550;2022-12-18T10:08:39;98599.91;;;8.36;61.40
21361;BME280;10839;43.206;23.550;2022-12-18T10:11:40;98600.00;;;8.44;62.63
21361;BME280;10839;43.206;23.550;2022-12-18T10:19:59;98597.22;;;8.73;64.24
21361;BME280;10839;43.206;23.550;2022-12-18T10:27:46;98589.06;;;8.65;63.75
21361;BME280;10839;43.206;23.550;2022-12-18T10:30:20;98590.06;;;9.36;58.63
21361;BME280;10839;43.206;23.550;2022-12-18T10:32:46;98593.72;;;9.17;58.81
21361;BME280;10839;43.206;23.550;2022-12-18T10:35:22;98600.09;;;8.89;60.38
21361;BME280;10839;43.206;23.550;2022-12-18T10:38:06;98608.00;;;8.54;61.00
21361;BME280;10839;43.206;23.550;2022-12-18T10:40:47;98593.34;;;8.58;58.86
21361;BME280;10839;43.206;23.550;2022-12-18T10:43:15;98594.44;;;8.65;60.79
21361;BME280;10839;43.206;23.550;2022-12-18T10:46:01;98583.75;;;9.10;58.18
21361;BME280;10839;43.206;23.550;2022-12-18T10:48:28;98594.13;;;8.95;56.52
21361;BME280;10839;43.206;23.550;2022-12-18T10:50:55;98588.78;;;8.58;56.01
21361;BME280;10839;43.206;23.550;2022-12-18T10:53:28;98588.31;;;8.36;57.82
21361;BME280;10839;43.206;23.550;2022-12-18T10:55:58;98579.16;;;8.29;57.15
21361;BME280;10839;43.206;23.550;2022-12-18T10:58:28;98584.38;;;8.21;58.28
21361;BME280;10839;43.206;23.550;2022-12-18T11:03:41;98576.06;;;8.60;58.19
21361;BME280;10839;43.206;23.550;2022-12-18T11:08:35;98578.75;;;8.14;57.68
21361;BME280;10839;43.206;23.550;2022-12-18T11:11:02;98585.53;;;8.28;58.24
21361;BME280;10839;43.206;23.550;2022-12-18T11:13:30;98584.09;;;8.24;57.90
21361;BME280;10839;43.206;23.550;2022-12-18T11:15:57;98585.09;;;8.23;58.85
21361;BME280;10839;43.206;23.550;2022-12-18T11:20:55;98592.25;;;8.78;57.93
21361;BME280;10839;43.206;23.550;2022-12-18T11:23:23;98598.84;;;8.47;59.02
21361;BME280;10839;43.206;23.550;2022-12-18T11:25:55;98590.13;;;8.45;58.22
21361;BME280;10839;43.206;23.550;2022-12-18T11:29:07;98590.25;;;8.53;59.08
21361;BME280;10839;43.206;23.550;2022-12-18T11:31:33;98591.91;;;8.54;59.04
21361;BME280;10839;43.206;23.550;2022-12-18T11:34:20;98588.44;;;9.25;58.28
21361;BME280;10839;43.206;23.550;2022-12-18T11:36:50;98600.75;;;9.45;57.43
21361;BME280;10839;43.206;23.550;2022-12-18T11:39:40;98600.50;;;8.94;58.96
21361;BME280;10839;43.206;23.550;2022-12-18T11:42:45;98600.41;;;8.86;59.47
21361;BME280;10839;43.206;23.550;2022-12-18T11:47:44;98603.16;;;8.67;62.42
21361;BME280;10839;43.206;23.550;2022-12-18T11:50:17;98606.19;;;9.18;59.75
21361;BME280;10839;43.206;23.550;2022-12-18T11:52:44;98606.84;;;9.20;60.66
21361;BME280;10839;43.206;23.550;2022-12-18T11:55:14;98605.97;;;8.75;62.74
21361;BME280;10839;43.206;23.550;2022-12-18T11:58:04;98607.16;;;8.63;63.76
21361;BME280;10839;43.206;23.550;2022-12-18T12:00:37;98603.47;;;8.64;64.65
21361;BME280;10839;43.206;23.550;2022-12-18T12:03:20;98602.41;;;8.47;63.86
21361;BME280;10839;43.206;23.550;2022-12-18T12:11:10;98601.41;;;8.85;63.64
21361;BME280;10839;43.206;23.550;2022-12-18T12:16:57;98611.41;;;8.56;64.04
21361;BME280;10839;43.206;23.550;2022-12-18T12:19:49;98605.44;;;8.62;63.93
21361;BME280;10839;43.206;23.550;2022-12-18T12:22:33;98604.28;;;9.28;61.27
21361;BME280;10839;43.206;23.550;2022-12-18T12:30:35;98601.78;;;8.63;62.77
21361;BME280;10839;43.206;23.550;2022-12-18T12:38:27;98616.72;;;9.02;52.55
21361;BME280;10839;43.206;23.550;2022-12-18T12:40:58;98612.81;;;8.96;49.17
21361;BME280;10839;43.206;23.550;2022-12-18T12:43:42;98613.06;;;8.66;49.45
21361;BME280;10839;43.206;23.550;2022-12-18T12:46:11;98610.63;;;8.36;51.27
21361;BME280;10839;43.206;23.550;2022-12-18T12:51:27;98617.22;;;8.42;50.65
21361;BME280;10839;43.206;23.550;2022-12-18T12:53:56;98618.59;;;8.92;49.92
21361;BME280;10839;43.206;23.550;2022-12-18T12:56:26;98628.44;;;9.01;47.57
21361;BME280;10839;43.206;23.550;2022-12-18T12:59:30;98621.63;;;8.43;48.26
21361;BME280;10839;43.206;23.550;2022-12-18T13:02:18;98622.19;;;8.37;48.51
21361;BME280;10839;43.206;23.550;2022-12-18T13:08:23;98639.44;;;8.25;49.67
21361;BME280;10839;43.206;23.550;2022-12-18T13:10:50;98636.97;;;8.87;49.58
21361;BME280;10839;43.206;23.550;2022-12-18T13:13:55;98641.91;;;8.55;48.98
21361;BME280;10839;43.206;23.550;2022-12-18T13:16:25;98643.59;;;8.56;49.87
21361;BME280;10839;43.206;23.550;2022-12-18T13:18:56;98654.94;;;9.14;48.63
21361;BME280;10839;43.206;23.550;2022-12-18T13:21:33;98652.06;;;8.61;50.55
21361;BME280;10839;43.206;23.550;2022-12-18T13:24:25;98657.72;;;8.58;52.07
21361;BME280;10839;43.206;23.550;2022-12-18T13:26:51;98649.13;;;8.91;50.95
21361;BME280;10839;43.206;23.550;2022-12-18T13:29:45;98657.59;;;8.50;52.56
21361;BME280;10839;43.206;23.550;2022-12-18T13:32:22;98658.63;;;8.30;54.16
21361;BME280;10839;43.206;23.550;2022-12-18T13:34:49;98655.44;;;8.63;52.79
21361;BME280;10839;43.206;23.550;2022-12-18T13:37:44;98655.22;;;8.09;52.36
21361;BME280;10839;43.206;23.550;2022-12-18T13:43:24;98666.53;;;8.22;52.49
21361;BME280;10839;43.206;23.550;2022-12-18T13:46:24;98676.53;;;8.20;52.06
21361;BME280;10839;43.206;23.550;2022-12-18T13:52:02;98688.41;;;7.98;52.80
21361;BME280;10839;43.206;23.550;2022-12-18T13:54:37;98692.19;;;8.15;52.44
21361;BME280;10839;43.206;23.550;2022-12-18T13:57:06;98687.66;;;7.77;53.01
21361;BME280;10839;43.206;23.550;2022-12-18T13:59:51;98692.44;;;7.73;53.34
21361;BME280;10839;43.206;23.550;2022-12-18T14:02:26;98687.81;;;7.95;53.38
21361;BME280;10839;43.206;23.550;2022-12-18T14:04:53;98689.19;;;7.60;52.91
21361;BME280;10839;43.206;23.550;2022-12-18T14:09:54;98697.50;;;7.57;55.12
21361;BME280;10839;43.206;23.550;2022-12-18T14:12:32;98699.81;;;7.71;53.89
21361;BME280;10839;43.206;23.550;2022-12-18T14:15:34;98699.16;;;7.39;55.81
21361;BME280;10839;43.206;23.550;2022-12-18T14:18:13;98699.38;;;7.66;57.25
21361;BME280;10839;43.206;23.550;2022-12-18T14:20:43;98709.91;;;7.49;56.97
21361;BME280;10839;43.206;23.550;2022-12-18T14:23:45;98716.59;;;7.24;60.01
21361;BME280;10839;43.206;23.550;2022-12-18T14:26:30;98714.50;;;7.37;58.84
21361;BME280;10839;43.206;23.550;2022-12-18T14:28:58;98716.91;;;7.40;58.61
21361;BME280;10839;43.206;23.550;2022-12-18T14:31:28;98714.91;;;7.23;59.83
21361;BME280;10839;43.206;23.550;2022-12-18T14:33:54;98715.25;;;7.49;59.62
21361;BME280;10839;43.206;23.550;2022-12-18T14:36:26;98719.34;;;7.43;59.28
21361;BME280;10839;43.206;23.550;2022-12-18T14:38:54;98726.75;;;7.30;58.98
21361;BME280;10839;43.206;23.550;2022-12-18T14:41:21;98717.06;;;7.39;58.95
21361;BME280;10839;43.206;23.550;2022-12-18T14:43:49;98731.31;;;7.09;59.59
21361;BME280;10839;43.206;23.550;2022-12-18T14:49:00;98736.56;;;7.20;61.07
21361;BME280;10839;43.206;23.550;2022-12-18T14:51:29;98736.47;;;6.92;62.46
21361;BME280;10839;43.206;23.550;2022-12-18T14:54:01;98743.47;;;6.83;63.77